createdAt,value
2019-01-16T00:00:15.596Z,12.57
2019-01-16T00:03:15.977Z,11.50
2019-01-16T00:06:26.653Z,9.93
2019-01-16T00:09:15.127Z,8.33
2019-01-16T00:12:12.221Z,7.63
2019-01-16T00:15:08.499Z,7.03
2019-01-16T00:17:52.534Z,5.70
2019-01-16T00:20:41.269Z,5.87
2019-01-16T00:23:50.003Z,5.20
2019-01-16T00:26:38.635Z,4.00
2019-01-16T00:29:31.060Z,4.97
2019-01-16T00:32:12.876Z,3.77
2019-01-16T00:35:01.660Z,5.30
2019-01-16T00:37:52.399Z,4.43
2019-01-16T00:40:55.293Z,4.60
2019-01-16T00:43:54.583Z,4.57
2019-01-16T00:46:52.379Z,4.47
2019-01-16T00:49:42.781Z,4.57
2019-01-16T00:52:36.298Z,4.87
2019-01-16T00:55:26.592Z,5.30
2019-01-16T00:58:20.013Z,5.93
2019-01-16T01:01:18.068Z,5.27
2019-01-16T01:04:14.123Z,4.90
2019-01-16T01:07:06.313Z,4.47
2019-01-16T01:10:07.103Z,5.27
2019-01-16T01:12:57.030Z,5.43
2019-01-16T01:15:46.483Z,5.37
2019-01-16T01:18:40.917Z,5.10
2019-01-16T01:21:22.391Z,6.47
2019-01-16T01:24:28.198Z,6.13
2019-01-16T01:27:18.791Z,5.00
2019-01-16T01:30:24.491Z,5.40
2019-01-16T01:33:13.627Z,6.00
2019-01-16T01:36:04.884Z,5.67
2019-01-16T01:39:08.812Z,5.63
2019-01-16T01:42:08.914Z,5.33
2019-01-16T01:45:02.315Z,5.70
2019-01-16T01:47:55.022Z,6.17
2019-01-16T01:50:51.448Z,6.00
2019-01-16T01:53:47.568Z,6.40
2019-01-16T01:56:38.024Z,6.53
2019-01-16T01:59:26.957Z,5.97
2019-01-16T02:02:21.538Z,7.07
2019-01-16T02:05:14.790Z,5.80
2019-01-16T02:08:05.174Z,6.47
2019-01-16T02:11:04.779Z,6.90
2019-01-16T02:14:13.602Z,6.33
2019-01-16T02:17:06.967Z,5.80
2019-01-16T02:20:00.391Z,5.63
2019-01-16T02:22:52.161Z,5.60
2019-01-16T02:25:46.975Z,7.50
2019-01-16T02:28:28.859Z,7.77
2019-01-16T02:31:31.723Z,7.53
2019-01-16T02:34:24.760Z,7.70
2019-01-16T02:37:24.437Z,7.40
2019-01-16T02:40:31.824Z,7.60
2019-01-16T02:43:20.097Z,7.83
2019-01-16T02:46:17.326Z,8.10
2019-01-16T02:48:59.919Z,8.27
2019-01-16T02:51:55.196Z,7.17
2019-01-16T02:54:44.352Z,7.07
2019-01-16T02:57:23.382Z,6.10
2019-01-16T03:00:08.540Z,6.07
2019-01-16T03:03:11.268Z,5.27
2019-01-16T03:05:49.671Z,6.10
2019-01-16T03:08:50.022Z,7.07
2019-01-16T03:11:39.126Z,5.67
2019-01-16T03:14:23.415Z,5.40
2019-01-16T03:17:12.656Z,5.80
2019-01-16T03:20:20.963Z,5.83
2019-01-16T03:23:10.287Z,4.73
2019-01-16T03:25:46.958Z,5.27
2019-01-16T03:28:35.606Z,4.43
2019-01-16T03:31:35.263Z,4.97
2019-01-16T03:34:26.204Z,4.40
2019-01-16T03:37:10.316Z,4.50
2019-01-16T03:39:59.724Z,4.07
2019-01-16T03:42:46.365Z,4.33
2019-01-16T03:45:45.995Z,4.33
2019-01-16T03:48:43.681Z,4.00
2019-01-16T03:51:34.712Z,5.23
2019-01-16T03:54:43.027Z,4.40
2019-01-16T03:57:49.334Z,4.00
2019-01-16T04:00:32.748Z,5.33
2019-01-16T04:03:32.327Z,4.10
2019-01-16T04:06:22.700Z,4.33
2019-01-16T04:09:11.289Z,4.10
2019-01-16T04:12:10.818Z,4.73
2019-01-16T04:15:00.590Z,4.83
2019-01-16T04:17:46.899Z,4.43
2019-01-16T04:20:46.453Z,4.50
2019-01-16T04:23:35.581Z,4.57
2019-01-16T04:26:40.872Z,4.23
2019-01-16T04:29:29.575Z,5.73
2019-01-16T04:32:30.865Z,5.57
2019-01-16T04:35:37.101Z,7.33
2019-01-16T04:38:27.904Z,5.27
2019-01-16T04:41:30.465Z,5.83
2019-01-16T04:44:09.952Z,6.23
2019-01-16T04:47:00.653Z,6.63
2019-01-16T04:49:49.767Z,6.80
2019-01-16T04:52:54.855Z,7.20
2019-01-16T04:56:03.194Z,7.63
2019-01-16T04:58:56.640Z,11.50
2019-01-16T05:02:00.557Z,16.10
2019-01-16T05:05:09.083Z,13.23
2019-01-16T05:08:18.091Z,16.43
2019-01-16T05:11:19.030Z,14.00
2019-01-16T05:14:06.299Z,14.47
2019-01-16T05:17:03.225Z,16.23
2019-01-16T05:19:59.874Z,16.23
2019-01-16T05:22:50.679Z,15.93
2019-01-16T05:25:43.751Z,14.73
2019-01-16T05:28:34.134Z,12.07
2019-01-16T05:31:27.507Z,13.87
2019-01-16T05:34:29.760Z,12.47
2019-01-16T05:37:21.123Z,13.67
2019-01-16T05:40:09.194Z,12.97
2019-01-16T05:43:27.001Z,14.27
2019-01-16T05:46:23.092Z,12.50
2019-01-16T05:49:12.523Z,14.13
2019-01-16T05:52:08.696Z,15.90
2019-01-16T05:54:59.401Z,16.87
2019-01-16T05:57:45.148Z,14.37
2019-01-16T06:00:54.864Z,15.37
2019-01-16T06:03:58.179Z,15.37
2019-01-16T06:06:54.443Z,15.93
2019-01-16T06:09:46.972Z,15.00
2019-01-16T06:12:40.128Z,15.20
2019-01-16T06:15:30.526Z,14.20
2019-01-16T06:18:21.060Z,13.47
2019-01-16T06:41:28.943Z,11.63
2019-01-16T06:44:19.276Z,11.60
2019-01-16T06:47:01.262Z,12.00
2019-01-16T06:58:27.892Z,12.47
2019-01-16T07:13:49.792Z,10.90
2019-01-16T07:19:53.779Z,10.30
2019-01-16T07:22:48.771Z,9.77
2019-01-16T07:25:42.276Z,12.30
2019-01-16T07:44:00.931Z,10.73
2019-01-16T07:46:53.911Z,11.57
2019-01-16T07:49:54.773Z,9.73
2019-01-16T07:55:40.747Z,9.50
2019-01-16T07:58:22.407Z,11.10
2019-01-16T08:01:14.761Z,11.10
2019-01-16T08:10:05.697Z,10.03
2019-01-16T08:12:57.051Z,10.07
2019-01-16T08:21:52.859Z,13.33
2019-01-16T08:33:25.158Z,17.57
2019-01-16T08:36:30.588Z,15.57
2019-01-16T08:39:19.640Z,14.27
2019-01-16T08:42:08.711Z,18.50
2019-01-16T08:56:07.935Z,26.37
2019-01-16T08:59:12.985Z,20.63
2019-01-16T09:02:06.272Z,27.03
2019-01-16T09:05:04.641Z,25.43
2019-01-16T09:07:54.014Z,40.43
2019-01-16T09:10:44.747Z,33.47
2019-01-16T09:13:34.177Z,24.20
2019-01-16T09:16:24.697Z,34.90
2019-01-16T09:19:14.856Z,32.70
2019-01-16T09:22:05.142Z,26.07
2019-01-16T09:24:57.671Z,22.57
2019-01-16T09:27:42.563Z,30.17
2019-01-16T09:30:39.097Z,25.60
2019-01-16T09:33:23.961Z,21.90
2019-01-16T09:36:19.288Z,18.70
2019-01-16T09:39:15.916Z,23.63
2019-01-16T09:48:11.931Z,18.33
2019-01-16T09:51:02.474Z,16.43
2019-01-16T09:54:04.737Z,20.60
2019-01-16T09:56:59.685Z,22.00
2019-01-16T09:59:43.354Z,22.07
2019-01-16T10:02:35.354Z,19.67
2019-01-16T10:05:16.146Z,17.50
2019-01-16T10:08:09.097Z,17.17
2019-01-16T10:10:55.739Z,17.77
2019-01-16T10:13:46.276Z,17.57
2019-01-16T10:16:37.820Z,15.83
2019-01-16T10:19:39.928Z,17.90
2019-01-16T10:22:39.046Z,19.27
2019-01-16T10:25:26.189Z,20.40
2019-01-16T10:28:22.314Z,18.67
2019-01-16T10:31:18.767Z,17.90
2019-01-16T10:34:17.223Z,16.80
2019-01-16T10:37:06.097Z,18.03
2019-01-16T10:40:03.610Z,17.60
2019-01-16T10:42:52.854Z,15.93
2019-01-16T10:45:42.942Z,16.40
2019-01-16T10:48:49.635Z,16.33
2019-01-16T10:54:35.415Z,16.93
2019-01-16T10:57:24.397Z,17.70
2019-01-16T11:00:23.386Z,17.30
2019-01-16T11:03:19.243Z,15.00
2019-01-16T11:06:11.131Z,15.83
2019-01-16T11:09:06.354Z,15.67
2019-01-16T11:11:49.871Z,16.67
2019-01-16T11:14:40.077Z,15.47
2019-01-16T11:18:01.816Z,16.00
2019-01-16T11:21:01.468Z,17.53
2019-01-16T11:23:57.796Z,17.00
2019-01-16T11:26:46.681Z,15.83
2019-01-16T11:29:36.736Z,15.10
2019-01-16T11:32:33.153Z,14.93
2019-01-16T11:35:30.033Z,15.70
2019-01-16T11:38:23.637Z,14.57
2019-01-16T11:41:16.772Z,15.97
2019-01-16T11:44:05.633Z,16.40
2019-01-16T11:46:52.282Z,16.33
2019-01-16T11:49:45.186Z,15.33
2019-01-16T11:52:37.240Z,15.53
2019-01-16T11:55:33.726Z,14.00
2019-01-16T11:58:29.811Z,14.63
2019-01-16T12:01:38.534Z,15.53
2019-01-16T12:04:29.880Z,15.77
2019-01-16T12:07:41.035Z,17.73
2019-01-16T12:10:38.619Z,16.93
2019-01-16T12:13:20.903Z,16.73
2019-01-16T12:16:05.019Z,17.50
2019-01-16T12:19:11.697Z,17.67
2019-01-16T12:22:00.716Z,19.53
2019-01-16T12:24:48.050Z,19.00
2019-01-16T12:27:50.303Z,21.53
2019-01-16T12:30:45.530Z,22.03
2019-01-16T12:33:36.039Z,22.27
2019-01-16T12:36:25.122Z,22.20
2019-01-16T12:39:27.752Z,23.17
2019-01-16T12:42:19.052Z,19.97
2019-01-16T12:45:14.577Z,19.17
2019-01-16T12:48:17.329Z,19.57
2019-01-16T12:51:16.812Z,20.50
2019-01-16T12:54:22.159Z,20.17
2019-01-16T12:57:13.823Z,20.80
2019-01-16T13:00:02.589Z,21.87
2019-01-16T13:03:07.802Z,20.87
2019-01-16T13:05:46.828Z,19.50
2019-01-16T13:08:47.511Z,20.70
2019-01-16T13:11:40.422Z,22.63
2019-01-16T13:14:36.639Z,20.80
2019-01-16T13:17:43.328Z,21.50
2019-01-16T13:20:32.239Z,21.90
2019-01-16T13:23:25.344Z,19.80
2019-01-16T13:26:23.202Z,19.63
2019-01-16T13:29:16.576Z,20.00
2019-01-16T13:32:05.420Z,18.97
2019-01-16T13:35:11.179Z,19.73
2019-01-16T13:38:09.123Z,20.67
2019-01-16T13:41:02.984Z,20.47
2019-01-16T13:43:52.430Z,19.10
2019-01-16T13:46:47.673Z,20.40
2019-01-16T13:49:44.488Z,20.53
2019-01-16T13:52:40.909Z,20.20
2019-01-16T13:55:37.164Z,21.50
2019-01-16T13:58:19.665Z,22.73
2019-01-16T14:01:10.193Z,21.80
2019-01-16T14:04:01.393Z,22.13
2019-01-16T14:06:38.272Z,20.97
2019-01-16T14:09:29.605Z,21.50
2019-01-16T14:12:14.171Z,21.57
2019-01-16T14:15:03.343Z,23.03
2019-01-16T14:17:46.495Z,23.63
2019-01-16T14:20:35.629Z,22.40
2019-01-16T14:23:24.036Z,22.13
2019-01-16T14:26:14.431Z,25.43
2019-01-16T14:28:53.028Z,25.63
2019-01-16T14:31:42.006Z,24.90
2019-01-16T14:34:41.737Z,24.93
2019-01-16T14:37:49.465Z,24.73
2019-01-16T14:40:38.454Z,26.37
2019-01-16T14:43:44.190Z,25.17
2019-01-16T14:46:40.534Z,25.30
2019-01-16T14:49:29.651Z,24.33
2019-01-16T14:52:14.377Z,24.67
2019-01-16T14:55:17.955Z,25.87
2019-01-16T14:57:59.582Z,23.93
2019-01-16T15:00:54.244Z,26.03
2019-01-16T15:03:44.702Z,26.80
2019-01-16T15:06:42.569Z,25.80
2019-01-16T15:09:33.728Z,25.40
2019-01-16T15:12:39.747Z,24.27
2019-01-16T15:15:30.369Z,25.70
2019-01-16T15:18:21.239Z,25.33
2019-01-16T15:21:10.813Z,27.70
2019-01-16T15:24:16.786Z,29.40
2019-01-16T15:27:08.635Z,26.57
2019-01-16T15:29:58.294Z,28.23
2019-01-16T15:32:47.678Z,27.47
2019-01-16T15:35:33.123Z,27.10
2019-01-16T15:38:39.350Z,27.67
2019-01-16T15:41:32.533Z,27.87
2019-01-16T15:44:26.361Z,25.73
2019-01-16T15:47:15.532Z,25.77
2019-01-16T15:50:15.572Z,27.00
2019-01-16T15:53:42.089Z,26.30
2019-01-16T15:56:46.021Z,26.43
2019-01-16T15:59:43.933Z,26.37
2019-01-16T16:02:33.019Z,27.10
2019-01-16T16:05:25.589Z,28.23
2019-01-16T16:08:19.051Z,30.40
2019-01-16T16:11:08.133Z,28.57
2019-01-16T16:13:58.638Z,27.20
2019-01-16T16:16:53.307Z,28.17
2019-01-16T16:20:05.329Z,27.80
2019-01-16T16:23:15.338Z,28.47
2019-01-16T16:26:14.603Z,28.07
2019-01-16T16:29:07.976Z,27.30
2019-01-16T16:31:57.217Z,28.23
2019-01-16T16:34:50.288Z,28.47
2019-01-16T16:37:49.236Z,29.90
2019-01-16T16:40:38.163Z,30.33
2019-01-16T16:43:29.345Z,32.80
2019-01-16T16:46:26.425Z,31.33
2019-01-16T16:49:23.969Z,32.13
2019-01-16T16:52:12.706Z,33.40
2019-01-16T16:55:08.280Z,28.03
2019-01-16T16:58:18.211Z,31.47
2019-01-16T17:01:11.955Z,28.87
2019-01-16T17:04:06.999Z,27.70
2019-01-16T17:07:12.516Z,29.13
2019-01-16T17:10:08.184Z,28.77
2019-01-16T17:13:01.057Z,27.13
2019-01-16T17:15:49.805Z,25.83
2019-01-16T17:18:46.110Z,26.30
2019-01-16T17:21:48.231Z,25.13
2019-01-16T17:24:51.551Z,23.90
2019-01-16T17:27:40.207Z,23.90
2019-01-16T17:30:33.510Z,23.97
2019-01-16T17:33:22.599Z,24.40
2019-01-16T17:36:16.783Z,23.97
2019-01-16T17:39:01.213Z,22.53
2019-01-16T17:41:57.544Z,25.20
2019-01-16T17:44:56.759Z,21.50
2019-01-16T17:47:45.559Z,22.10
2019-01-16T17:50:34.357Z,22.20
2019-01-16T17:53:23.432Z,21.50
2019-01-16T17:56:10.762Z,22.67
2019-01-16T17:58:56.620Z,22.20
2019-01-16T18:01:45.688Z,21.93
2019-01-16T18:04:35.968Z,22.53
2019-01-16T18:07:26.001Z,21.63
2019-01-16T18:10:14.698Z,22.63
2019-01-16T18:13:05.296Z,23.40
2019-01-16T18:15:55.557Z,25.10
2019-01-16T18:18:45.577Z,22.70
2019-01-16T18:21:41.724Z,23.80
2019-01-16T18:24:41.195Z,22.80
2019-01-16T18:27:37.117Z,21.70
2019-01-16T18:30:29.680Z,21.70
2019-01-16T18:33:18.814Z,23.33
2019-01-16T18:36:08.155Z,28.53
2019-01-16T18:39:17.081Z,27.23
2019-01-16T18:42:19.632Z,25.37
2019-01-16T18:45:12.509Z,24.50
2019-01-16T18:48:01.474Z,25.27
2019-01-16T18:50:50.427Z,25.77
2019-01-16T18:53:43.236Z,24.80
2019-01-16T18:56:47.625Z,23.87
2019-01-16T18:59:34.238Z,25.40
2019-01-16T19:02:25.904Z,24.40
2019-01-16T19:05:13.014Z,24.20
2019-01-16T19:08:06.903Z,23.13
2019-01-16T19:10:47.757Z,22.67
2019-01-16T19:13:55.351Z,23.03
2019-01-16T19:16:45.663Z,23.37
2019-01-16T19:19:36.730Z,23.70
2019-01-16T19:22:27.101Z,23.47
2019-01-16T19:25:35.425Z,23.97
2019-01-16T19:28:18.943Z,20.60
2019-01-16T19:31:25.256Z,21.70
2019-01-16T19:34:21.174Z,19.03
2019-01-16T19:37:10.263Z,19.90
2019-01-16T19:40:12.886Z,19.13
2019-01-16T19:43:03.572Z,20.20
2019-01-16T19:45:52.553Z,18.93
2019-01-16T19:48:41.431Z,18.63
2019-01-16T19:51:32.197Z,18.37
2019-01-16T19:54:22.543Z,18.83
2019-01-16T19:57:28.291Z,18.43
2019-01-16T20:00:14.248Z,18.70
2019-01-16T20:03:16.569Z,15.33
2019-01-16T20:06:03.776Z,15.07
2019-01-16T20:09:06.121Z,15.60
2019-01-16T20:11:55.106Z,14.13
2019-01-16T20:14:43.995Z,14.70
2019-01-16T20:17:32.921Z,14.73
2019-01-16T20:20:25.137Z,14.17
2019-01-16T20:23:14.053Z,13.57
2019-01-16T20:26:07.399Z,12.40
2019-01-16T20:28:58.010Z,12.93
2019-01-16T20:32:00.257Z,12.33
2019-01-16T20:34:49.058Z,12.83
2019-01-16T20:37:39.652Z,13.70
2019-01-16T20:40:45.857Z,12.47
2019-01-16T20:43:34.773Z,13.13
2019-01-16T20:46:24.048Z,12.90
2019-01-16T20:49:13.221Z,12.23
2019-01-16T20:52:15.946Z,12.57
2019-01-16T20:55:05.191Z,11.67
2019-01-16T20:58:01.752Z,13.43
2019-01-16T21:00:51.922Z,11.57
2019-01-16T21:03:54.156Z,11.80
2019-01-16T21:06:59.600Z,12.73
2019-01-16T21:09:39.524Z,11.77
2019-01-16T21:12:42.051Z,12.70
2019-01-16T21:15:51.750Z,12.10
2019-01-16T21:18:36.353Z,11.00
2019-01-16T21:21:32.341Z,11.37
2019-01-16T21:24:32.468Z,11.83
2019-01-16T21:27:31.851Z,10.13
2019-01-16T21:30:21.046Z,10.80
2019-01-16T21:33:10.653Z,10.03
2019-01-16T21:35:59.823Z,9.83
2019-01-16T21:38:48.738Z,10.47
2019-01-16T21:41:38.719Z,10.77
2019-01-16T21:44:24.366Z,11.37
2019-01-16T21:47:17.622Z,10.40
2019-01-16T21:50:10.157Z,10.13
2019-01-16T21:53:17.689Z,11.10
2019-01-16T21:56:08.336Z,11.20
2019-01-16T21:59:07.438Z,10.00
2019-01-16T22:01:51.179Z,10.17
2019-01-16T22:04:34.211Z,11.97
2019-01-16T22:07:16.688Z,10.90
2019-01-16T22:10:19.128Z,11.07
2019-01-16T22:13:14.521Z,11.47
2019-01-16T22:16:00.741Z,10.53
2019-01-16T22:18:44.381Z,10.80
2019-01-16T22:21:40.478Z,10.23
2019-01-16T22:24:32.884Z,10.47
2019-01-16T22:27:29.572Z,10.83
2019-01-16T22:30:15.650Z,10.43
2019-01-16T22:33:04.613Z,11.00
2019-01-16T22:35:56.337Z,10.40
2019-01-16T22:38:49.309Z,10.37
2019-01-16T22:41:48.580Z,10.30
2019-01-16T22:44:37.239Z,9.70
2019-01-16T22:47:33.855Z,9.50
2019-01-16T22:50:23.740Z,9.77
2019-01-16T22:53:08.616Z,10.00
2019-01-16T22:55:57.808Z,10.93
2019-01-16T22:58:44.607Z,14.30
2019-01-16T23:01:37.268Z,13.23
2019-01-16T23:04:21.973Z,11.83
2019-01-16T23:07:03.784Z,12.03
2019-01-16T23:09:51.915Z,11.37
2019-01-16T23:12:54.403Z,10.63
2019-01-16T23:15:44.734Z,11.63
2019-01-16T23:18:30.523Z,10.93
2019-01-16T23:21:31.931Z,9.60
2019-01-16T23:24:15.698Z,9.53
2019-01-16T23:27:05.714Z,10.43
2019-01-16T23:29:57.586Z,9.50
2019-01-16T23:32:43.583Z,9.40
2019-01-16T23:35:32.436Z,9.30
2019-01-16T23:38:21.656Z,9.37
2019-01-16T23:41:10.828Z,9.30
2019-01-16T23:44:06.389Z,8.73
2019-01-16T23:46:59.849Z,9.20
2019-01-16T23:49:53.383Z,9.27
2019-01-16T23:52:33.324Z,9.50
2019-01-16T23:55:13.289Z,9.10
2019-01-16T23:58:03.899Z,8.70
